createdAt,value
2019-02-14T00:00:56.968Z,5.22
2019-02-14T00:03:26.661Z,7.25
2019-02-14T00:05:56.289Z,7.80
2019-02-14T00:08:28.426Z,4.80
2019-02-14T00:11:07.591Z,8.10
2019-02-14T00:13:38.820Z,5.70
2019-02-14T00:16:08.481Z,6.90
2019-02-14T00:18:38.110Z,5.60
2019-02-14T00:21:07.743Z,5.65
2019-02-14T00:23:38.977Z,9.00
2019-02-14T00:26:08.580Z,7.50
2019-02-14T00:28:38.188Z,8.73
2019-02-14T00:31:07.810Z,7.37
2019-02-14T00:33:37.426Z,5.55
2019-02-14T00:36:09.388Z,7.90
2019-02-14T00:38:38.997Z,4.35
2019-02-14T00:41:08.638Z,7.05
2019-02-14T00:43:38.337Z,9.18
2019-02-14T00:46:07.978Z,5.17
2019-02-14T00:48:39.644Z,8.33
2019-02-14T00:51:09.249Z,5.65
2019-02-14T00:53:38.947Z,7.65
2019-02-14T00:56:08.559Z,4.42
2019-02-14T00:58:38.175Z,7.87
2019-02-14T01:01:07.808Z,8.93
2019-02-14T01:03:37.418Z,8.15
2019-02-14T01:06:13.602Z,4.92
2019-02-14T01:08:43.232Z,5.37
2019-02-14T01:11:14.478Z,5.62
2019-02-14T01:13:47.545Z,9.50
2019-02-14T01:16:17.246Z,6.12
2019-02-14T01:18:46.843Z,9.38
2019-02-14T01:21:16.452Z,7.25
2019-02-14T01:23:48.672Z,10.08
2019-02-14T01:26:22.964Z,12.93
2019-02-14T01:28:52.592Z,9.50
2019-02-14T01:31:22.187Z,9.78
2019-02-14T01:33:51.876Z,6.53
2019-02-14T01:36:23.136Z,6.03
2019-02-14T01:38:52.758Z,6.97
2019-02-14T01:41:22.359Z,9.90
2019-02-14T01:43:51.983Z,9.23
2019-02-14T01:46:21.623Z,9.28
2019-02-14T01:48:51.252Z,6.28
2019-02-14T01:51:20.868Z,10.48
2019-02-14T01:53:50.494Z,6.25
2019-02-14T01:56:20.116Z,7.78
2019-02-14T01:58:49.742Z,5.47
2019-02-14T02:01:20.696Z,6.83
2019-02-14T02:03:52.248Z,7.58
2019-02-14T02:06:21.863Z,13.55
2019-02-14T02:08:51.561Z,5.62
2019-02-14T02:11:21.186Z,10.53
2019-02-14T02:13:53.434Z,6.25
2019-02-14T02:16:23.054Z,6.33
2019-02-14T02:18:52.652Z,9.43
2019-02-14T02:21:24.087Z,5.97
2019-02-14T02:23:53.863Z,7.50
2019-02-14T02:26:23.489Z,6.83
2019-02-14T02:28:53.110Z,7.67
2019-02-14T02:31:27.610Z,8.78
2019-02-14T02:34:01.757Z,9.55
2019-02-14T02:36:31.465Z,7.00
2019-02-14T02:39:01.098Z,6.58
2019-02-14T02:41:33.300Z,7.00
2019-02-14T02:44:09.078Z,12.23
2019-02-14T02:46:41.554Z,8.15
2019-02-14T02:49:11.176Z,7.75
2019-02-14T02:51:42.996Z,7.35
2019-02-14T02:54:15.685Z,11.63
2019-02-14T02:56:45.318Z,6.35
2019-02-14T02:59:14.950Z,6.22
2019-02-14T03:01:44.544Z,5.70
2019-02-14T03:04:16.832Z,5.50
2019-02-14T03:06:46.474Z,4.90
2019-02-14T03:09:17.714Z,7.58
2019-02-14T03:11:47.331Z,7.03
2019-02-14T03:14:16.974Z,7.20
2019-02-14T03:17:05.864Z,5.85
2019-02-14T03:19:37.674Z,10.85
2019-02-14T03:22:07.298Z,7.87
2019-02-14T03:24:36.911Z,9.35
2019-02-14T03:27:08.251Z,6.80
2019-02-14T03:29:42.360Z,7.15
2019-02-14T03:32:12.904Z,6.58
2019-02-14T03:34:42.542Z,11.35
2019-02-14T03:37:12.175Z,8.15
2019-02-14T03:39:41.799Z,7.95
2019-02-14T03:42:11.421Z,9.08
2019-02-14T03:44:41.046Z,7.03
2019-02-14T03:47:10.665Z,9.90
2019-02-14T03:49:45.388Z,9.33
2019-02-14T03:52:15.014Z,9.23
2019-02-14T03:54:44.638Z,7.00
2019-02-14T03:57:15.562Z,9.40
2019-02-14T03:59:45.186Z,10.80
2019-02-14T04:02:16.411Z,18.30
2019-02-14T04:04:46.024Z,8.43
2019-02-14T04:07:15.637Z,7.35
2019-02-14T04:09:51.219Z,4.87
2019-02-14T04:12:24.111Z,5.12
2019-02-14T04:14:53.729Z,6.40
2019-02-14T04:17:23.325Z,7.58
2019-02-14T04:19:55.271Z,6.80
2019-02-14T04:22:24.911Z,7.45
2019-02-14T04:24:54.520Z,8.23
2019-02-14T04:27:24.127Z,6.62
2019-02-14T04:29:56.427Z,5.50
2019-02-14T04:32:27.712Z,11.85
2019-02-14T04:34:57.331Z,9.45
2019-02-14T04:37:26.940Z,6.70
2019-02-14T04:39:57.760Z,6.60
2019-02-14T04:42:29.742Z,9.03
2019-02-14T04:44:59.367Z,7.03
2019-02-14T04:47:32.296Z,5.08
2019-02-14T04:50:03.891Z,6.20
2019-02-14T04:52:33.543Z,8.35
2019-02-14T04:55:03.134Z,4.50
2019-02-14T04:57:35.515Z,7.62
2019-02-14T05:00:26.046Z,6.55
2019-02-14T05:02:55.644Z,6.72
2019-02-14T05:05:25.355Z,5.47
2019-02-14T05:07:54.980Z,6.35
2019-02-14T05:10:24.610Z,12.43
2019-02-14T05:12:54.237Z,16.05
2019-02-14T05:15:23.839Z,6.78
2019-02-14T05:17:53.472Z,7.20
2019-02-14T05:20:24.364Z,7.03
2019-02-14T05:22:59.727Z,6.22
2019-02-14T05:25:30.639Z,5.53
2019-02-14T05:28:00.263Z,8.20
2019-02-14T05:30:29.932Z,8.48
2019-02-14T05:32:59.554Z,7.62
2019-02-14T05:35:29.183Z,10.30
2019-02-14T05:37:58.807Z,6.50
2019-02-14T05:40:28.421Z,5.05
2019-02-14T05:42:59.015Z,8.98
2019-02-14T05:45:28.638Z,7.60
2019-02-14T05:47:58.253Z,9.75
2019-02-14T05:50:31.778Z,8.18
2019-02-14T05:53:04.875Z,9.83
2019-02-14T05:55:34.484Z,5.67
2019-02-14T05:58:04.176Z,8.18
2019-02-14T06:00:33.789Z,4.45
2019-02-14T06:03:05.248Z,8.78
2019-02-14T06:05:35.467Z,6.85
2019-02-14T06:08:05.073Z,5.95
2019-02-14T06:10:37.110Z,6.10
2019-02-14T06:13:06.791Z,7.15
2019-02-14T06:15:36.404Z,8.85
2019-02-14T06:18:06.011Z,6.28
2019-02-14T06:20:37.436Z,5.58
2019-02-14T06:23:07.059Z,13.00
2019-02-14T06:25:39.330Z,8.10
2019-02-14T06:28:08.999Z,10.08
2019-02-14T06:30:38.625Z,5.97
2019-02-14T06:33:08.243Z,10.13
2019-02-14T06:35:37.848Z,6.17
2019-02-14T06:38:10.120Z,7.75
2019-02-14T06:40:39.767Z,5.50
2019-02-14T06:43:11.022Z,10.15
2019-02-14T06:45:40.627Z,7.97
2019-02-14T06:48:11.478Z,6.08
2019-02-14T06:50:41.114Z,7.00
2019-02-14T06:53:10.748Z,9.55
2019-02-14T06:55:40.384Z,12.82
2019-02-14T06:58:10.008Z,12.25
2019-02-14T07:00:41.264Z,8.98
2019-02-14T07:03:10.972Z,8.60
2019-02-14T07:05:40.718Z,7.85
2019-02-14T07:08:10.437Z,6.70
2019-02-14T07:10:40.081Z,8.83
2019-02-14T07:13:09.717Z,10.70
2019-02-14T07:15:39.393Z,5.90
2019-02-14T07:18:09.023Z,7.33
2019-02-14T07:20:41.320Z,8.13
2019-02-14T07:23:10.975Z,10.80
2019-02-14T07:25:42.483Z,9.50
2019-02-14T07:28:12.152Z,5.58
2019-02-14T07:30:41.840Z,11.00
2019-02-14T07:33:11.946Z,6.25
2019-02-14T07:35:41.570Z,8.63
2019-02-14T07:38:11.199Z,7.40
2019-02-14T07:40:40.824Z,5.60
2019-02-14T07:43:10.443Z,7.03
2019-02-14T07:45:41.306Z,8.20
2019-02-14T07:48:13.146Z,10.95
2019-02-14T07:50:42.782Z,7.62
2019-02-14T07:53:12.411Z,7.20
2019-02-14T07:55:42.122Z,11.00
2019-02-14T07:58:11.854Z,9.38
2019-02-14T08:00:44.121Z,9.70
2019-02-14T08:03:13.769Z,7.35
2019-02-14T08:05:43.461Z,5.28
2019-02-14T08:08:15.705Z,11.83
2019-02-14T08:10:45.392Z,6.55
2019-02-14T08:13:15.033Z,15.68
2019-02-14T08:15:45.794Z,7.62
2019-02-14T08:18:18.317Z,13.55
2019-02-14T08:20:48.056Z,6.60
2019-02-14T08:23:18.458Z,10.15
2019-02-14T08:25:48.168Z,8.08
2019-02-14T08:28:17.860Z,9.95
2019-02-14T08:30:50.020Z,6.83
2019-02-14T08:33:28.702Z,7.08
2019-02-14T08:36:00.644Z,11.65
2019-02-14T08:38:30.318Z,7.53
2019-02-14T08:40:59.979Z,5.45
2019-02-14T08:43:29.632Z,7.83
2019-02-14T08:45:59.290Z,6.65
2019-02-14T08:48:28.936Z,5.60
2019-02-14T08:50:58.632Z,9.53
2019-02-14T08:53:28.308Z,4.78
2019-02-14T08:55:57.954Z,6.87
2019-02-14T08:58:27.571Z,5.30
2019-02-14T09:00:57.275Z,6.90
2019-02-14T09:03:26.884Z,7.47
2019-02-14T09:05:56.533Z,4.60
2019-02-14T09:08:26.256Z,8.53
2019-02-14T09:10:55.878Z,9.98
2019-02-14T09:13:25.498Z,8.50
2019-02-14T09:15:55.114Z,5.37
2019-02-14T09:18:26.590Z,8.63
2019-02-14T09:20:56.238Z,9.30
2019-02-14T09:23:27.485Z,4.83
2019-02-14T09:25:57.114Z,4.95
2019-02-14T09:28:26.729Z,4.47
2019-02-14T09:30:58.694Z,6.33
2019-02-14T09:33:28.348Z,5.55
2019-02-14T09:35:57.978Z,4.22
2019-02-14T09:38:29.742Z,5.72
2019-02-14T09:41:02.107Z,7.03
2019-02-14T09:43:31.814Z,4.75
2019-02-14T09:46:01.448Z,13.98
2019-02-14T09:48:31.047Z,26.12
2019-02-14T09:51:02.959Z,84.28
2019-02-14T09:53:32.605Z,146.75
2019-02-14T09:56:02.244Z,184.90
2019-02-14T09:58:34.033Z,255.45
2019-02-14T10:01:04.764Z,274.77
2019-02-14T10:03:35.544Z,317.15
2019-02-14T10:06:05.192Z,365.48
2019-02-14T10:08:37.983Z,341.20
2019-02-14T10:11:07.729Z,322.60
2019-02-14T10:13:49.336Z,304.68
2019-02-14T10:16:18.971Z,299.85
2019-02-14T10:18:48.611Z,302.57
2019-02-14T10:21:20.747Z,290.20
2019-02-14T10:23:53.239Z,297.88
2019-02-14T10:26:22.882Z,281.65
2019-02-14T10:28:52.547Z,299.80
2019-02-14T10:31:22.257Z,291.73
2019-02-14T10:33:51.879Z,312.88
2019-02-14T10:36:21.521Z,267.65
2019-02-14T10:38:51.154Z,255.47
2019-02-14T10:41:20.784Z,251.12
2019-02-14T10:43:50.414Z,244.40
2019-02-14T10:46:20.144Z,257.27
2019-02-14T10:48:49.800Z,262.98
2019-02-14T10:51:19.516Z,237.63
2019-02-14T10:53:49.138Z,242.97
2019-02-14T10:56:18.789Z,235.15
2019-02-14T10:58:53.406Z,266.35
2019-02-14T11:01:23.127Z,220.90
2019-02-14T11:03:52.830Z,233.43
2019-02-14T11:06:22.463Z,236.60
2019-02-14T11:08:52.192Z,228.83
2019-02-14T11:11:21.834Z,224.85
2019-02-14T11:13:51.523Z,199.53
2019-02-14T11:16:21.193Z,206.65
2019-02-14T11:18:51.874Z,228.88
2019-02-14T11:21:21.568Z,255.52
2019-02-14T11:23:51.784Z,215.05
2019-02-14T11:26:21.424Z,225.30
2019-02-14T11:28:51.102Z,193.35
2019-02-14T11:31:20.735Z,169.93
2019-02-14T11:33:50.364Z,183.62
2019-02-14T11:36:20.002Z,181.78
2019-02-14T11:38:52.620Z,213.35
2019-02-14T11:41:22.248Z,183.00
2019-02-14T11:43:55.908Z,182.53
2019-02-14T11:46:25.548Z,176.55
2019-02-14T11:48:55.209Z,201.95
2019-02-14T11:51:24.857Z,154.03
2019-02-14T11:53:54.493Z,142.95
2019-02-14T11:56:24.134Z,161.47
2019-02-14T11:58:55.600Z,159.00
2019-02-14T12:01:25.225Z,147.62
2019-02-14T12:03:54.844Z,67.37
2019-02-14T12:06:24.464Z,61.83
2019-02-14T12:09:00.096Z,86.97
2019-02-14T12:11:25.491Z,140.32
2019-02-14T12:13:55.130Z,131.80
2019-02-14T12:16:24.762Z,102.15
2019-02-14T12:18:54.506Z,129.23
2019-02-14T12:21:24.135Z,97.80
2019-02-14T12:23:55.574Z,108.07
2019-02-14T12:26:25.199Z,99.45
2019-02-14T12:28:55.004Z,95.57
2019-02-14T12:31:24.646Z,108.30
2019-02-14T12:33:54.343Z,82.47
2019-02-14T12:36:24.629Z,118.55
2019-02-14T12:38:54.259Z,103.42
2019-02-14T12:41:23.886Z,113.03
2019-02-14T12:43:53.518Z,102.55
2019-02-14T12:46:23.159Z,88.65
2019-02-14T12:48:54.009Z,64.30
2019-02-14T12:51:23.638Z,81.80
2019-02-14T12:53:53.284Z,79.77
2019-02-14T12:56:22.903Z,64.17
2019-02-14T12:58:52.528Z,77.78
2019-02-14T13:01:23.790Z,68.55
2019-02-14T13:03:53.451Z,67.08
2019-02-14T13:06:24.169Z,57.10
2019-02-14T13:08:59.848Z,63.40
2019-02-14T13:11:33.435Z,60.03
2019-02-14T13:14:03.054Z,62.48
2019-02-14T13:16:32.676Z,53.15
2019-02-14T13:19:02.288Z,55.98
2019-02-14T13:21:31.997Z,58.00
2019-02-14T13:24:01.638Z,57.43
2019-02-14T13:26:31.423Z,58.65
2019-02-14T13:29:01.046Z,50.50
2019-02-14T13:31:32.431Z,54.90
2019-02-14T13:34:02.218Z,50.63
2019-02-14T13:36:34.479Z,58.92
2019-02-14T13:39:09.268Z,58.38
2019-02-14T13:41:38.884Z,50.05
2019-02-14T13:44:08.535Z,43.73
2019-02-14T13:46:38.166Z,44.45
2019-02-14T13:49:07.789Z,41.42
2019-02-14T13:51:37.413Z,48.58
2019-02-14T13:54:09.694Z,48.00
2019-02-14T13:56:43.944Z,45.28
2019-02-14T13:59:13.563Z,38.30
2019-02-14T14:01:43.200Z,50.25
2019-02-14T14:04:12.827Z,37.85
2019-02-14T14:06:42.444Z,46.28
2019-02-14T14:09:13.047Z,45.05
2019-02-14T14:11:42.659Z,36.77
2019-02-14T14:14:17.253Z,39.23
2019-02-14T14:16:54.515Z,39.70
2019-02-14T14:19:24.419Z,40.70
2019-02-14T14:21:54.054Z,47.27
2019-02-14T14:24:23.686Z,48.98
2019-02-14T14:26:55.848Z,46.85
2019-02-14T14:29:25.483Z,66.20
2019-02-14T14:31:55.098Z,45.92
2019-02-14T14:34:27.482Z,29.95
2019-02-14T14:37:01.697Z,37.55
2019-02-14T14:39:31.335Z,27.98
2019-02-14T14:42:01.632Z,34.23
2019-02-14T14:44:35.782Z,50.88
2019-02-14T14:47:11.092Z,26.50
2019-02-14T14:49:42.595Z,47.60
2019-02-14T14:52:12.220Z,40.95
2019-02-14T14:54:41.831Z,35.43
2019-02-14T14:57:12.815Z,38.38
2019-02-14T14:59:42.446Z,34.10
2019-02-14T15:02:12.082Z,39.90
2019-02-14T15:04:41.717Z,38.05
2019-02-14T15:07:11.337Z,27.67
2019-02-14T15:09:42.702Z,38.15
2019-02-14T15:12:12.348Z,32.20
2019-02-14T15:14:41.975Z,34.30
2019-02-14T15:17:14.908Z,27.73
2019-02-14T15:19:44.573Z,31.95
2019-02-14T15:22:15.204Z,27.32
2019-02-14T15:24:44.912Z,26.07
2019-02-14T15:27:14.637Z,30.52
2019-02-14T15:29:45.604Z,37.58
2019-02-14T15:32:15.320Z,34.65
2019-02-14T15:34:44.950Z,34.85
2019-02-14T15:37:17.969Z,27.48
2019-02-14T15:39:47.729Z,27.05
2019-02-14T15:42:17.359Z,46.10
2019-02-14T15:44:47.108Z,28.38
2019-02-14T15:47:16.744Z,23.73
2019-02-14T15:49:46.865Z,25.50
2019-02-14T15:52:17.740Z,22.13
2019-02-14T15:54:47.380Z,21.73
2019-02-14T15:57:18.636Z,30.32
2019-02-14T15:59:48.371Z,23.32
2019-02-14T16:02:19.243Z,25.75
2019-02-14T16:04:50.661Z,24.70
2019-02-14T16:07:20.259Z,22.80
2019-02-14T16:09:51.234Z,21.05
2019-02-14T16:12:21.849Z,20.20
2019-02-14T16:14:51.684Z,18.32
2019-02-14T16:17:21.318Z,19.15
2019-02-14T16:19:50.964Z,35.88
2019-02-14T16:22:29.662Z,22.37
2019-02-14T16:24:52.001Z,25.27
2019-02-14T16:27:22.528Z,24.90
2019-02-14T16:30:02.049Z,18.25
2019-02-14T16:32:32.570Z,20.55
2019-02-14T16:35:02.208Z,27.35
2019-02-14T16:37:31.918Z,25.40
2019-02-14T16:40:01.553Z,19.67
2019-02-14T16:42:32.181Z,20.60
2019-02-14T16:45:02.119Z,23.15
2019-02-14T16:47:32.825Z,38.42
2019-02-14T16:50:06.222Z,17.27
2019-02-14T16:52:35.871Z,22.17
2019-02-14T16:55:05.954Z,27.13
2019-02-14T16:57:35.748Z,11.80
2019-02-14T17:00:06.861Z,18.37
2019-02-14T17:02:36.497Z,38.63
2019-02-14T17:05:07.568Z,24.57
2019-02-14T17:07:38.822Z,15.83
2019-02-14T17:10:10.036Z,22.10
2019-02-14T17:12:39.706Z,15.03
2019-02-14T17:15:10.054Z,18.95
2019-02-14T17:17:42.606Z,18.50
2019-02-14T17:20:12.241Z,12.93
2019-02-14T17:22:41.954Z,13.10
2019-02-14T17:25:11.592Z,15.65
2019-02-14T17:27:41.210Z,17.12
2019-02-14T17:30:10.997Z,10.93
2019-02-14T17:32:40.612Z,18.35
2019-02-14T17:35:10.299Z,16.67
2019-02-14T17:37:41.267Z,16.90
2019-02-14T17:40:10.978Z,15.32
2019-02-14T17:42:40.616Z,12.95
2019-02-14T17:45:10.699Z,13.25
2019-02-14T17:47:40.320Z,9.93
2019-02-14T17:50:10.111Z,9.55
2019-02-14T17:52:39.755Z,10.23
2019-02-14T17:55:09.499Z,8.80
2019-02-14T17:57:41.348Z,20.30
2019-02-14T18:00:12.865Z,11.28
2019-02-14T18:02:42.508Z,11.83
2019-02-14T18:05:12.157Z,10.30
2019-02-14T18:07:41.866Z,12.20
2019-02-14T18:10:14.356Z,15.70
2019-02-14T18:12:43.979Z,19.10
2019-02-14T18:15:13.762Z,12.33
2019-02-14T18:17:43.376Z,11.18
2019-02-14T18:20:13.987Z,12.55
2019-02-14T18:22:43.762Z,15.03
2019-02-14T18:25:13.570Z,12.23
2019-02-14T18:27:43.210Z,10.53
2019-02-14T18:30:13.014Z,9.80
2019-02-14T18:32:42.687Z,10.28
2019-02-14T18:35:12.469Z,9.35
2019-02-14T18:37:42.153Z,12.43
2019-02-14T18:40:11.848Z,12.82
2019-02-14T18:42:50.437Z,15.18
2019-02-14T18:45:20.071Z,6.90
2019-02-14T18:47:50.700Z,9.75
2019-02-14T18:50:21.624Z,15.32
2019-02-14T18:52:51.240Z,8.55
2019-02-14T18:55:21.134Z,14.78
2019-02-14T18:57:50.819Z,11.60
2019-02-14T19:00:20.472Z,12.88
2019-02-14T19:02:50.089Z,9.88
2019-02-14T19:05:20.686Z,12.03
2019-02-14T19:07:51.304Z,9.98
2019-02-14T19:10:20.927Z,10.32
2019-02-14T19:12:50.598Z,10.68
2019-02-14T19:15:20.280Z,8.93
2019-02-14T19:17:50.865Z,10.18
2019-02-14T19:20:20.496Z,7.50
2019-02-14T19:22:50.258Z,7.42
2019-02-14T19:25:19.884Z,8.80
2019-02-14T19:27:49.509Z,7.53
2019-02-14T19:30:19.158Z,9.38
2019-02-14T19:32:48.877Z,6.37
2019-02-14T19:35:23.102Z,5.83
2019-02-14T19:37:49.919Z,7.08
2019-02-14T19:40:19.525Z,13.40
2019-02-14T19:42:49.144Z,12.85
2019-02-14T19:45:20.036Z,4.35
2019-02-14T19:47:49.648Z,9.55
2019-02-14T19:50:19.268Z,5.85
2019-02-14T19:52:48.868Z,10.60
2019-02-14T19:55:18.486Z,8.63
2019-02-14T19:57:48.093Z,6.62
2019-02-14T20:00:17.704Z,10.23
2019-02-14T20:02:47.343Z,11.05
2019-02-14T20:05:16.948Z,5.60
2019-02-14T20:07:46.561Z,8.08
2019-02-14T20:10:16.276Z,7.37
2019-02-14T20:12:45.880Z,6.67
2019-02-14T20:15:15.746Z,9.73
2019-02-14T20:17:45.367Z,11.12
2019-02-14T20:20:15.089Z,11.83
2019-02-14T20:22:44.831Z,9.30
2019-02-14T20:25:15.323Z,7.25
2019-02-14T20:27:44.935Z,9.98
2019-02-14T20:30:14.553Z,6.78
2019-02-14T20:32:44.174Z,8.10
2019-02-14T20:35:13.803Z,11.83
2019-02-14T20:37:43.416Z,5.87
2019-02-14T20:40:13.047Z,7.12
2019-02-14T20:42:42.686Z,8.55
2019-02-14T20:45:12.782Z,6.33
2019-02-14T20:47:42.553Z,8.98
2019-02-14T20:50:12.590Z,8.20
2019-02-14T20:52:42.280Z,7.78
2019-02-14T20:55:13.545Z,13.10
2019-02-14T20:57:43.172Z,5.97
2019-02-14T21:00:22.647Z,6.30
2019-02-14T21:02:53.458Z,8.38
2019-02-14T21:05:23.138Z,4.75
2019-02-14T21:07:52.873Z,8.10
2019-02-14T21:10:22.582Z,5.28
2019-02-14T21:12:53.187Z,4.03
2019-02-14T21:15:22.809Z,11.63
2019-02-14T21:17:52.440Z,6.12
2019-02-14T21:20:22.074Z,7.75
2019-02-14T21:22:52.836Z,5.33
2019-02-14T21:25:23.974Z,6.87
2019-02-14T21:27:53.902Z,5.15
2019-02-14T21:30:23.561Z,5.70
2019-02-14T21:32:53.223Z,10.68
2019-02-14T21:35:28.338Z,6.10
2019-02-14T21:37:57.980Z,6.40
2019-02-14T21:40:27.634Z,9.05
2019-02-14T21:42:57.297Z,9.90
2019-02-14T21:45:26.927Z,4.65
2019-02-14T21:47:56.643Z,9.33
2019-02-14T21:50:26.361Z,5.58
2019-02-14T21:52:56.039Z,6.40
2019-02-14T21:55:34.653Z,4.65
2019-02-14T21:58:05.471Z,4.58
2019-02-14T22:00:35.674Z,5.05
2019-02-14T22:03:05.359Z,8.53
2019-02-14T22:05:34.991Z,4.20
2019-02-14T22:08:04.756Z,7.62
2019-02-14T22:10:34.452Z,4.53
2019-02-14T22:13:04.074Z,6.70
2019-02-14T22:15:33.697Z,8.60
2019-02-14T22:18:03.328Z,9.73
2019-02-14T22:20:33.014Z,6.65
2019-02-14T22:23:02.642Z,4.97
2019-02-14T22:25:32.262Z,5.97
2019-02-14T22:28:04.912Z,10.50
2019-02-14T22:30:35.597Z,5.83
2019-02-14T22:33:05.242Z,6.20
2019-02-14T22:35:34.908Z,5.30
2019-02-14T22:38:04.534Z,13.18
2019-02-14T22:40:34.143Z,4.25
2019-02-14T22:43:06.167Z,9.78
2019-02-14T22:45:38.787Z,6.62
2019-02-14T22:48:08.505Z,5.83
2019-02-14T22:50:39.477Z,9.20
2019-02-14T22:53:09.112Z,4.70
2019-02-14T22:55:41.562Z,9.65
2019-02-14T22:58:13.366Z,5.60
2019-02-14T23:00:47.342Z,5.15
2019-02-14T23:03:17.106Z,5.45
2019-02-14T23:05:46.734Z,6.70
2019-02-14T23:08:16.370Z,4.97
2019-02-14T23:10:47.437Z,5.33
2019-02-14T23:13:17.078Z,8.05
2019-02-14T23:15:46.714Z,4.90
2019-02-14T23:18:16.338Z,5.25
2019-02-14T23:20:46.045Z,5.55
2019-02-14T23:23:15.670Z,4.72
2019-02-14T23:25:46.276Z,8.53
2019-02-14T23:28:15.912Z,5.67
2019-02-14T23:30:45.519Z,7.25
2019-02-14T23:33:18.688Z,7.00
2019-02-14T23:35:49.924Z,11.97
2019-02-14T23:38:19.536Z,7.28
2019-02-14T23:40:49.186Z,5.53
2019-02-14T23:43:18.795Z,6.12
2019-02-14T23:45:48.569Z,9.95
2019-02-14T23:48:18.190Z,4.25
2019-02-14T23:50:47.830Z,10.13
2019-02-14T23:53:17.448Z,4.70
2019-02-14T23:55:47.063Z,4.05
2019-02-14T23:58:18.289Z,12.03
